createdAt,value
2023-12-18T00:00:07.097Z,2.28
2023-12-18T00:01:07.181Z,2.27
2023-12-18T00:02:07.038Z,2.27
2023-12-18T00:03:07.127Z,2.24
2023-12-18T00:04:07.095Z,2.23
2023-12-18T00:05:07.059Z,2.21
2023-12-18T00:06:07.018Z,2.18
2023-12-18T00:07:07.009Z,2.18
2023-12-18T00:08:06.992Z,2.17
2023-12-18T00:09:06.996Z,2.18
2023-12-18T00:10:06.972Z,2.17
2023-12-18T00:11:06.928Z,2.16
2023-12-18T00:12:06.923Z,2.17
2023-12-18T00:13:06.962Z,2.17
2023-12-18T00:14:06.893Z,2.18
2023-12-18T00:15:06.918Z,2.17
2023-12-18T00:16:06.834Z,2.18
2023-12-18T00:17:06.927Z,2.18
2023-12-18T00:18:06.966Z,2.18
2023-12-18T00:19:06.948Z,2.16
2023-12-18T00:20:06.830Z,2.16
2023-12-18T00:21:06.814Z,2.16
2023-12-18T00:22:06.762Z,2.14
2023-12-18T00:23:06.769Z,2.14
2023-12-18T00:24:06.797Z,2.12
2023-12-18T00:25:06.778Z,2.14
2023-12-18T00:26:06.734Z,2.14
2023-12-18T00:27:06.763Z,2.17
2023-12-18T00:28:06.727Z,2.17
2023-12-18T00:29:06.748Z,2.18
2023-12-18T00:30:06.704Z,2.20
2023-12-18T00:31:06.757Z,2.21
2023-12-18T00:32:06.636Z,2.21
2023-12-18T00:33:06.738Z,2.20
2023-12-18T00:34:06.792Z,2.20
2023-12-18T00:35:06.666Z,2.20
2023-12-18T00:36:06.609Z,2.20
2023-12-18T00:37:06.629Z,2.20
2023-12-18T00:38:06.602Z,2.18
2023-12-18T00:39:06.581Z,2.18
2023-12-18T00:40:06.615Z,2.16
2023-12-18T00:41:07.017Z,2.12
2023-12-18T00:42:06.595Z,2.14
2023-12-18T00:43:06.499Z,2.14
2023-12-18T00:44:06.519Z,2.16
2023-12-18T00:45:06.492Z,2.17
2023-12-18T00:46:06.532Z,2.21
2023-12-18T00:47:06.456Z,2.23
2023-12-18T00:48:06.525Z,2.21
2023-12-18T00:49:06.598Z,2.21
2023-12-18T00:50:07.897Z,2.20
2023-12-18T00:51:06.435Z,2.18
2023-12-18T00:52:06.443Z,2.17
2023-12-18T00:53:06.370Z,2.16
2023-12-18T00:54:06.440Z,2.16
2023-12-18T00:55:06.376Z,2.16
2023-12-18T00:56:06.398Z,2.16
2023-12-18T00:57:06.356Z,2.14
2023-12-18T00:58:06.356Z,2.16
2023-12-18T00:59:06.297Z,2.14
2023-12-18T01:00:06.379Z,2.17
2023-12-18T01:01:06.439Z,2.17
2023-12-18T01:02:06.286Z,2.17
2023-12-18T01:03:06.337Z,2.17
2023-12-18T01:04:06.353Z,2.17
2023-12-18T01:05:06.281Z,2.18
2023-12-18T01:06:06.260Z,2.20
2023-12-18T01:07:06.196Z,2.20
2023-12-18T01:08:06.191Z,2.20
2023-12-18T01:09:06.202Z,2.17
2023-12-18T01:10:06.191Z,2.16
2023-12-18T01:11:06.155Z,2.16
2023-12-18T01:12:06.180Z,2.14
2023-12-18T01:13:06.133Z,2.16
2023-12-18T01:14:06.164Z,2.17
2023-12-18T01:15:06.122Z,2.18
2023-12-18T01:16:06.089Z,2.18
2023-12-18T01:17:06.091Z,2.17
2023-12-18T01:18:06.230Z,2.16
2023-12-18T01:19:06.213Z,2.16
2023-12-18T01:20:06.083Z,2.16
2023-12-18T01:21:06.055Z,2.12
2023-12-18T01:22:06.073Z,2.09
2023-12-18T01:23:05.994Z,2.09
2023-12-18T01:24:06.033Z,2.07
2023-12-18T01:25:05.998Z,2.05
2023-12-18T01:26:05.979Z,2.05
2023-12-18T01:27:05.952Z,2.00
2023-12-18T01:28:05.937Z,2.00
2023-12-18T01:29:05.940Z,2.00
2023-12-18T01:30:05.977Z,1.98
2023-12-18T01:31:05.968Z,1.95
2023-12-18T01:32:05.910Z,1.95
2023-12-18T01:33:06.018Z,1.98
2023-12-18T01:34:05.923Z,1.99
2023-12-18T01:35:05.837Z,2.00
2023-12-18T01:36:05.952Z,1.98
2023-12-18T01:37:05.825Z,1.93
2023-12-18T01:38:05.820Z,1.95
2023-12-18T01:39:05.788Z,1.93
2023-12-18T01:40:05.796Z,1.90
2023-12-18T01:41:05.770Z,1.88
2023-12-18T01:42:05.837Z,1.87
2023-12-18T01:43:05.722Z,1.87
2023-12-18T01:44:05.771Z,1.84
2023-12-18T01:45:05.714Z,1.84
2023-12-18T01:46:05.710Z,1.87
2023-12-18T01:47:05.668Z,1.86
2023-12-18T01:48:05.800Z,1.90
2023-12-18T01:49:05.800Z,1.88
2023-12-18T01:50:05.691Z,1.86
2023-12-18T01:51:05.682Z,1.86
2023-12-18T01:52:05.618Z,1.83
2023-12-18T01:53:05.594Z,1.84
2023-12-18T01:54:05.652Z,1.83
2023-12-18T01:55:05.572Z,1.81
2023-12-18T01:56:05.579Z,1.83
2023-12-18T01:57:05.656Z,1.81
2023-12-18T01:58:05.558Z,1.80
2023-12-18T01:59:05.506Z,1.80
2023-12-18T02:00:05.593Z,1.80
2023-12-18T02:01:05.648Z,1.79
2023-12-18T02:02:05.499Z,1.80
2023-12-18T02:03:05.527Z,1.79
2023-12-18T02:04:05.581Z,1.79
2023-12-18T02:05:05.433Z,1.79
2023-12-18T02:06:05.493Z,1.81
2023-12-18T02:07:05.429Z,1.81
2023-12-18T02:08:05.427Z,1.84
2023-12-18T02:09:05.504Z,1.84
2023-12-18T02:10:05.416Z,1.81
2023-12-18T02:11:05.349Z,1.81
2023-12-18T02:12:05.428Z,1.81
2023-12-18T02:13:05.356Z,1.80
2023-12-18T02:14:05.376Z,1.79
2023-12-18T02:15:05.365Z,1.77
2023-12-18T02:16:05.350Z,1.76
2023-12-18T02:17:05.310Z,1.72
2023-12-18T02:18:05.422Z,1.70
2023-12-18T02:19:05.311Z,1.70
2023-12-18T02:20:05.336Z,1.70
2023-12-18T02:21:05.280Z,1.70
2023-12-18T02:22:05.256Z,1.69
2023-12-18T02:23:05.245Z,1.69
2023-12-18T02:24:05.249Z,1.69
2023-12-18T02:25:05.232Z,1.70
2023-12-18T02:26:05.204Z,1.70
2023-12-18T02:27:05.170Z,1.70
2023-12-18T02:28:05.157Z,1.69
2023-12-18T02:29:05.125Z,1.70
2023-12-18T02:30:05.307Z,1.70
2023-12-18T02:31:05.210Z,1.72
2023-12-18T02:32:05.114Z,1.73
2023-12-18T02:33:05.146Z,1.72
2023-12-18T02:34:05.206Z,1.68
2023-12-18T02:35:05.149Z,1.68
2023-12-18T02:36:05.152Z,1.66
2023-12-18T02:37:05.014Z,1.68
2023-12-18T02:38:05.063Z,1.63
2023-12-18T02:39:05.053Z,1.62
2023-12-18T02:40:05.008Z,1.63
2023-12-18T02:41:04.973Z,1.63
2023-12-18T02:42:05.012Z,1.65
2023-12-18T02:43:05.233Z,1.63
2023-12-18T02:44:04.990Z,1.65
2023-12-18T02:45:04.992Z,1.65
2023-12-18T02:46:04.988Z,1.68
2023-12-18T02:47:04.916Z,1.69
2023-12-18T02:48:04.987Z,1.69
2023-12-18T02:49:04.906Z,1.69
2023-12-18T02:50:04.879Z,1.69
2023-12-18T02:51:04.944Z,1.63
2023-12-18T02:52:04.872Z,1.63
2023-12-18T02:53:04.836Z,1.60
2023-12-18T02:54:04.908Z,1.58
2023-12-18T02:55:04.812Z,1.52
2023-12-18T02:56:04.824Z,1.52
2023-12-18T02:57:04.848Z,1.52
2023-12-18T02:58:04.793Z,1.48
2023-12-18T02:59:04.783Z,1.47
2023-12-18T03:00:04.849Z,1.47
2023-12-18T03:01:04.735Z,1.45
2023-12-18T03:02:04.742Z,1.44
2023-12-18T03:03:04.800Z,1.45
2023-12-18T03:04:04.819Z,1.45
2023-12-18T03:05:04.716Z,1.45
2023-12-18T03:06:04.747Z,1.47
2023-12-18T03:07:04.633Z,1.48
2023-12-18T03:08:04.668Z,1.50
2023-12-18T03:09:04.635Z,1.48
2023-12-18T03:10:04.635Z,1.47
2023-12-18T03:11:04.598Z,1.45
2023-12-18T03:12:04.617Z,1.44
2023-12-18T03:13:04.582Z,1.44
2023-12-18T03:14:04.565Z,1.44
2023-12-18T03:15:04.572Z,1.47
2023-12-18T03:16:04.611Z,1.47
2023-12-18T03:17:04.519Z,1.47
2023-12-18T03:18:04.610Z,1.48
2023-12-18T03:19:04.524Z,1.48
2023-12-18T03:20:04.501Z,1.50
2023-12-18T03:21:04.468Z,1.50
2023-12-18T03:22:04.508Z,1.50
2023-12-18T03:23:04.429Z,1.51
2023-12-18T03:24:04.462Z,1.51
2023-12-18T03:25:04.434Z,1.50
2023-12-18T03:26:04.410Z,1.48
2023-12-18T03:27:04.417Z,1.48
2023-12-18T03:28:04.439Z,1.50
2023-12-18T03:29:04.360Z,1.51
2023-12-18T03:30:04.449Z,1.50
2023-12-18T03:31:04.399Z,1.50
2023-12-18T03:32:04.351Z,1.50
2023-12-18T03:33:04.396Z,1.48
2023-12-18T03:34:04.506Z,1.48
2023-12-18T03:35:04.294Z,1.51
2023-12-18T03:36:04.306Z,1.50
2023-12-18T03:37:04.241Z,1.45
2023-12-18T03:38:04.283Z,1.45
2023-12-18T03:39:04.280Z,1.44
2023-12-18T03:40:04.243Z,1.45
2023-12-18T03:41:04.223Z,1.48
2023-12-18T03:42:04.282Z,1.50
2023-12-18T03:43:04.186Z,1.48
2023-12-18T03:44:04.182Z,1.50
2023-12-18T03:45:04.207Z,1.50
2023-12-18T03:46:04.153Z,1.50
2023-12-18T03:47:04.135Z,1.47
2023-12-18T03:48:04.342Z,1.47
2023-12-18T03:49:04.188Z,1.45
2023-12-18T03:50:04.106Z,1.45
2023-12-18T03:51:04.123Z,1.45
2023-12-18T03:52:04.061Z,1.42
2023-12-18T03:53:04.040Z,1.42
2023-12-18T03:54:04.200Z,1.41
2023-12-18T03:55:04.035Z,1.37
2023-12-18T03:56:04.018Z,1.34
2023-12-18T03:57:04.058Z,1.33
2023-12-18T03:58:04.008Z,1.33
2023-12-18T03:59:04.014Z,1.32
2023-12-18T04:00:04.024Z,1.32
2023-12-18T04:01:04.073Z,1.32
2023-12-18T04:02:03.953Z,1.30
2023-12-18T04:03:03.931Z,1.30
2023-12-18T04:04:04.157Z,1.32
2023-12-18T04:05:03.936Z,1.29
2023-12-18T04:06:03.937Z,1.30
2023-12-18T04:07:03.873Z,1.30
2023-12-18T04:08:03.892Z,1.32
2023-12-18T04:09:03.957Z,1.32
2023-12-18T04:10:03.890Z,1.34
2023-12-18T04:11:03.804Z,1.37
2023-12-18T04:12:03.934Z,1.41
2023-12-18T04:13:03.798Z,1.42
2023-12-18T04:14:03.784Z,1.44
2023-12-18T04:15:03.839Z,1.42
2023-12-18T04:16:03.793Z,1.42
2023-12-18T04:17:03.733Z,1.44
2023-12-18T04:18:03.934Z,1.44
2023-12-18T04:19:03.992Z,1.45
2023-12-18T04:20:03.774Z,1.47
2023-12-18T04:21:03.717Z,1.51
2023-12-18T04:22:03.690Z,1.51
2023-12-18T04:23:03.652Z,1.51
2023-12-18T04:24:03.749Z,1.52
2023-12-18T04:25:03.634Z,1.52
2023-12-18T04:26:03.668Z,1.51
2023-12-18T04:27:03.612Z,1.47
2023-12-18T04:28:04.358Z,1.44
2023-12-18T04:29:03.577Z,1.41
2023-12-18T04:30:03.711Z,1.40
2023-12-18T04:31:03.669Z,1.37
2023-12-18T04:32:03.566Z,1.36
2023-12-18T04:33:03.660Z,1.34
2023-12-18T04:34:03.629Z,1.33
2023-12-18T04:35:03.547Z,1.33
2023-12-18T04:36:03.601Z,1.36
2023-12-18T04:37:04.975Z,1.36
2023-12-18T04:38:03.577Z,1.34
2023-12-18T04:39:03.458Z,1.33
2023-12-18T04:40:03.483Z,1.30
2023-12-18T04:41:03.450Z,1.30
2023-12-18T04:42:03.484Z,1.32
2023-12-18T04:43:03.396Z,1.30
2023-12-18T04:44:03.415Z,1.29
2023-12-18T04:45:03.428Z,1.27
2023-12-18T04:46:03.434Z,1.29
2023-12-18T04:47:03.350Z,1.29
2023-12-18T04:48:03.482Z,1.27
2023-12-18T04:49:03.427Z,1.30
2023-12-18T04:50:03.333Z,1.30
2023-12-18T04:51:03.364Z,1.33
2023-12-18T04:52:03.309Z,1.34
2023-12-18T04:53:03.263Z,1.34
2023-12-18T04:54:03.337Z,1.34
2023-12-18T04:55:03.267Z,1.33
2023-12-18T04:56:03.257Z,1.33
2023-12-18T04:57:03.294Z,1.27
2023-12-18T04:58:03.203Z,1.26
2023-12-18T04:59:03.202Z,1.27
2023-12-18T05:00:03.208Z,1.27
2023-12-18T05:01:03.268Z,1.29
2023-12-18T05:02:03.143Z,1.27
2023-12-18T05:03:03.232Z,1.26
2023-12-18T05:04:03.199Z,1.22
2023-12-18T05:05:03.158Z,1.22
2023-12-18T05:06:03.139Z,1.20
2023-12-18T05:07:03.107Z,1.20
2023-12-18T05:08:03.069Z,1.22
2023-12-18T05:09:03.232Z,1.22
2023-12-18T05:10:03.041Z,1.22
2023-12-18T05:11:03.068Z,1.22
2023-12-18T05:12:03.033Z,1.24
2023-12-18T05:13:03.052Z,1.24
2023-12-18T05:14:03.008Z,1.24
2023-12-18T05:15:04.367Z,1.24
2023-12-18T05:16:03.011Z,1.27
2023-12-18T05:17:03.019Z,1.27
2023-12-18T05:18:03.032Z,1.27
2023-12-18T05:19:03.003Z,1.24
2023-12-18T05:20:02.958Z,1.18
2023-12-18T05:21:02.928Z,1.18
2023-12-18T05:22:02.913Z,1.18
2023-12-18T05:23:02.916Z,1.16
2023-12-18T05:24:02.867Z,1.16
2023-12-18T05:25:02.909Z,1.18
2023-12-18T05:26:02.844Z,1.15
2023-12-18T05:27:02.862Z,1.12
2023-12-18T05:28:02.828Z,1.14
2023-12-18T05:29:02.834Z,1.14
2023-12-18T05:30:02.834Z,1.11
2023-12-18T05:31:02.865Z,1.12
2023-12-18T05:32:02.791Z,1.12
2023-12-18T05:33:02.851Z,1.12
2023-12-18T05:34:02.874Z,1.14
2023-12-18T05:35:02.772Z,1.15
2023-12-18T05:36:02.705Z,1.16
2023-12-18T05:37:02.743Z,1.12
2023-12-18T05:38:02.714Z,1.12
2023-12-18T05:39:02.713Z,1.14
2023-12-18T05:40:02.651Z,1.14
2023-12-18T05:41:02.702Z,1.16
2023-12-18T05:42:02.651Z,1.18
2023-12-18T05:43:02.731Z,1.18
2023-12-18T05:44:02.607Z,1.18
2023-12-18T05:45:02.632Z,1.16
2023-12-18T05:46:02.580Z,1.22
2023-12-18T05:47:02.606Z,1.18
2023-12-18T05:48:02.802Z,1.16
2023-12-18T05:49:02.716Z,1.16
2023-12-18T05:50:02.666Z,1.20
2023-12-18T05:51:02.561Z,1.20
2023-12-18T05:52:02.573Z,1.20
2023-12-18T05:53:02.549Z,1.22
2023-12-18T05:54:02.497Z,1.23
2023-12-18T05:55:02.994Z,1.23
2023-12-18T05:56:02.448Z,1.23
2023-12-18T05:57:02.487Z,1.26
2023-12-18T05:58:02.468Z,1.26
2023-12-18T05:59:02.471Z,1.24
2023-12-18T06:00:02.412Z,1.24
2023-12-18T06:01:03.078Z,1.23
2023-12-18T06:02:02.398Z,1.24
2023-12-18T06:03:02.420Z,1.29
2023-12-18T06:04:02.409Z,1.27
2023-12-18T06:05:02.359Z,1.26
2023-12-18T06:06:02.355Z,1.24
2023-12-18T06:07:02.375Z,1.29
2023-12-18T06:08:02.335Z,1.27
2023-12-18T06:09:02.311Z,1.27
2023-12-18T06:10:02.323Z,1.27
2023-12-18T06:11:02.282Z,1.29
2023-12-18T06:12:02.272Z,1.27
2023-12-18T06:13:02.379Z,1.24
2023-12-18T06:14:02.267Z,1.26
2023-12-18T06:15:02.241Z,1.26
2023-12-18T06:16:02.187Z,1.26
2023-12-18T06:17:02.233Z,1.27
2023-12-18T06:18:02.240Z,1.29
2023-12-18T06:19:02.322Z,1.29
2023-12-18T06:20:02.177Z,1.32
2023-12-18T06:21:02.150Z,1.34
2023-12-18T06:22:02.123Z,1.34
2023-12-18T06:23:02.179Z,1.34
2023-12-18T06:24:02.124Z,1.32
2023-12-18T06:25:02.160Z,1.34
2023-12-18T06:26:03.487Z,1.33
2023-12-18T06:27:02.106Z,1.36
2023-12-18T06:28:02.065Z,1.41
2023-12-18T06:29:02.046Z,1.41
2023-12-18T06:30:02.011Z,1.42
2023-12-18T06:31:02.235Z,1.37
2023-12-18T06:32:02.085Z,1.40
2023-12-18T06:33:02.117Z,1.37
2023-12-18T06:34:02.143Z,1.37
2023-12-18T06:35:02.112Z,1.36
2023-12-18T06:36:01.994Z,1.34
2023-12-18T06:37:01.936Z,1.32
2023-12-18T06:38:01.904Z,1.33
2023-12-18T06:39:01.936Z,1.34
2023-12-18T06:40:01.899Z,1.33
2023-12-18T06:41:01.927Z,1.33
2023-12-18T06:42:01.856Z,1.30
2023-12-18T06:43:01.900Z,1.26
2023-12-18T06:44:01.866Z,1.27
2023-12-18T06:45:01.828Z,1.24
2023-12-18T06:46:01.817Z,1.24
2023-12-18T06:47:01.834Z,1.22
2023-12-18T06:48:01.899Z,1.22
2023-12-18T06:49:01.851Z,1.16
2023-12-18T06:50:01.785Z,1.12
2023-12-18T06:51:01.757Z,1.11
2023-12-18T06:52:01.761Z,1.06
2023-12-18T06:53:01.751Z,1.05
2023-12-18T06:54:01.701Z,1.08
2023-12-18T06:55:01.728Z,1.08
2023-12-18T06:56:01.706Z,1.09
2023-12-18T06:57:01.681Z,1.09
2023-12-18T06:58:01.644Z,1.11
2023-12-18T06:59:01.653Z,1.09
2023-12-18T07:00:01.641Z,1.09
2023-12-18T07:01:01.827Z,1.08
2023-12-18T07:02:01.626Z,1.08
2023-12-18T07:03:01.681Z,1.08
2023-12-18T07:04:01.653Z,1.06
2023-12-18T07:05:01.614Z,1.05
2023-12-18T07:06:01.562Z,1.02
2023-12-18T07:07:01.587Z,1.02
2023-12-18T07:08:01.527Z,1.00
2023-12-18T07:09:01.595Z,1.00
2023-12-18T07:10:01.593Z,0.97
2023-12-18T07:11:01.554Z,0.97
2023-12-18T07:12:01.458Z,0.96
2023-12-18T07:13:01.522Z,0.97
2023-12-18T07:14:01.439Z,0.94
2023-12-18T07:15:01.517Z,0.91
2023-12-18T07:16:01.469Z,0.90
2023-12-18T07:17:01.445Z,0.86
2023-12-18T07:18:01.431Z,0.84
2023-12-18T07:19:01.546Z,0.79
2023-12-18T07:20:01.392Z,0.76
2023-12-18T07:21:01.368Z,0.78
2023-12-18T07:22:01.375Z,0.78
2023-12-18T07:23:01.377Z,0.79
2023-12-18T07:24:01.316Z,0.78
2023-12-18T07:25:01.344Z,0.79
2023-12-18T07:26:01.324Z,0.76
2023-12-18T07:27:01.314Z,0.73
2023-12-18T07:28:01.399Z,0.72
2023-12-18T07:29:01.315Z,0.70
2023-12-18T07:30:01.221Z,0.69
2023-12-18T07:31:01.364Z,0.68
2023-12-18T07:32:01.220Z,0.70
2023-12-18T07:33:01.310Z,0.69
2023-12-18T07:34:01.340Z,0.70
2023-12-18T07:35:01.403Z,0.69
2023-12-18T07:36:01.188Z,0.70
2023-12-18T07:37:01.180Z,0.70
2023-12-18T07:38:01.148Z,0.70
2023-12-18T07:39:01.151Z,0.70
2023-12-18T07:40:01.138Z,0.72
2023-12-18T07:41:01.139Z,0.72
2023-12-18T07:42:01.118Z,0.75
2023-12-18T07:43:01.094Z,0.75
2023-12-18T07:44:01.050Z,0.76
2023-12-18T07:45:01.089Z,0.76
2023-12-18T07:46:01.073Z,0.78
2023-12-18T07:47:01.068Z,0.79
2023-12-18T07:48:01.084Z,0.79
2023-12-18T07:49:01.163Z,0.78
2023-12-18T07:50:01.006Z,0.78
2023-12-18T07:51:01.000Z,0.79
2023-12-18T07:52:00.978Z,0.80
2023-12-18T07:53:00.981Z,0.80
2023-12-18T07:54:00.979Z,0.83
2023-12-18T07:55:00.938Z,0.83
2023-12-18T07:56:00.903Z,0.83
2023-12-18T07:57:00.923Z,0.80
2023-12-18T07:58:00.873Z,0.79
2023-12-18T07:59:00.885Z,0.83
2023-12-18T08:00:00.891Z,0.83
2023-12-18T08:01:00.948Z,0.79
2023-12-18T08:02:00.850Z,0.80
2023-12-18T08:03:00.875Z,0.80
2023-12-18T08:04:00.911Z,0.83
2023-12-18T08:05:00.846Z,0.86
2023-12-18T08:06:00.801Z,0.84
2023-12-18T08:07:00.788Z,0.86
2023-12-18T08:08:00.824Z,0.86
2023-12-18T08:09:00.772Z,0.87
2023-12-18T08:10:00.719Z,0.86
2023-12-18T08:11:00.758Z,0.86
2023-12-18T08:12:00.707Z,0.87
2023-12-18T08:13:00.753Z,0.87
2023-12-18T08:14:00.686Z,0.88
2023-12-18T08:15:00.725Z,0.88
2023-12-18T08:16:00.642Z,0.90
2023-12-18T08:17:00.653Z,0.93
2023-12-18T08:18:00.701Z,0.94
2023-12-18T08:19:00.735Z,0.94
2023-12-18T08:20:00.589Z,0.96
2023-12-18T08:21:00.621Z,0.96
2023-12-18T08:22:00.580Z,0.97
2023-12-18T08:23:00.591Z,0.98
2023-12-18T08:24:00.548Z,1.00
2023-12-18T08:25:00.613Z,1.00
2023-12-18T08:26:00.553Z,0.98
2023-12-18T08:27:00.551Z,0.97
2023-12-18T08:28:00.684Z,0.97
2023-12-18T08:29:00.500Z,0.98
2023-12-18T08:30:00.506Z,1.00
2023-12-18T08:31:00.573Z,1.04
2023-12-18T08:32:00.501Z,1.06
2023-12-18T08:33:00.542Z,1.09
2023-12-18T08:34:00.636Z,1.11
2023-12-18T08:35:00.432Z,1.14
2023-12-18T08:36:00.394Z,1.16
2023-12-18T08:37:00.431Z,1.20
2023-12-18T08:38:00.438Z,1.23
2023-12-18T08:39:00.996Z,1.24
2023-12-18T08:40:00.508Z,1.24
2023-12-18T08:41:00.359Z,1.27
2023-12-18T08:42:00.323Z,1.27
2023-12-18T08:43:00.414Z,1.30
2023-12-18T08:44:05.593Z,1.32
2023-12-18T08:45:00.373Z,1.33
2023-12-18T08:46:00.265Z,1.34
2023-12-18T08:47:00.260Z,1.37
2023-12-18T08:48:00.376Z,1.40
2023-12-18T08:49:00.414Z,1.40
2023-12-18T08:50:00.204Z,1.37
2023-12-18T08:51:00.228Z,1.40
2023-12-18T08:52:00.298Z,1.41
2023-12-18T08:53:00.197Z,1.41
2023-12-18T08:54:00.191Z,1.42
2023-12-18T08:55:00.216Z,1.44
2023-12-18T08:56:00.162Z,1.45
2023-12-18T08:57:00.160Z,1.47
2023-12-18T08:58:00.137Z,1.51
2023-12-18T08:59:00.120Z,1.54
2023-12-18T09:00:00.069Z,1.60
2023-12-18T09:01:00.162Z,1.66
2023-12-18T09:02:00.058Z,1.76
2023-12-18T09:03:00.089Z,1.83
2023-12-18T09:04:00.125Z,1.91
2023-12-18T09:05:00.038Z,2.05
2023-12-18T09:06:00.014Z,2.17
2023-12-18T09:07:00.055Z,2.24
2023-12-18T09:08:00.012Z,2.34
2023-12-18T09:08:59.988Z,2.46
2023-12-18T09:09:59.974Z,2.59
2023-12-18T09:10:59.937Z,2.66
2023-12-18T09:11:59.944Z,2.66
2023-12-18T09:12:59.944Z,2.60
2023-12-18T09:13:59.948Z,2.59
2023-12-18T09:14:59.873Z,2.64
2023-12-18T09:15:59.889Z,2.72
2023-12-18T09:16:59.846Z,2.75
2023-12-18T09:17:59.889Z,2.84
2023-12-18T09:19:00.103Z,2.95
2023-12-18T09:19:59.914Z,3.13
2023-12-18T09:20:59.836Z,3.28
2023-12-18T09:21:59.837Z,3.43
2023-12-18T09:22:59.798Z,3.55
2023-12-18T09:23:59.798Z,3.68
2023-12-18T09:24:59.809Z,3.66
2023-12-18T09:25:59.804Z,3.69
2023-12-18T09:26:59.728Z,3.83
2023-12-18T09:27:59.728Z,3.96
2023-12-18T09:28:59.763Z,4.05
2023-12-18T09:29:59.695Z,4.14
2023-12-18T09:30:59.794Z,4.27
2023-12-18T09:31:59.834Z,4.32
2023-12-18T09:32:59.794Z,4.32
2023-12-18T09:33:59.842Z,4.41
2023-12-18T09:34:59.715Z,4.45
2023-12-18T09:36:00.950Z,4.51
2023-12-18T09:36:59.629Z,4.58
2023-12-18T09:37:59.609Z,4.63
2023-12-18T09:38:59.598Z,4.70
2023-12-18T09:39:59.561Z,4.78
2023-12-18T09:40:59.532Z,4.80
2023-12-18T09:41:59.597Z,4.88
2023-12-18T09:42:59.607Z,5.00
2023-12-18T09:43:59.526Z,5.15
2023-12-18T09:44:59.495Z,5.35
2023-12-18T09:46:00.017Z,5.39
2023-12-18T09:46:59.486Z,5.46
2023-12-18T09:47:59.594Z,5.40
2023-12-18T09:48:59.554Z,5.53
2023-12-18T09:49:59.469Z,5.63
2023-12-18T09:50:59.407Z,5.64
2023-12-18T09:51:59.424Z,5.64
2023-12-18T09:52:59.372Z,5.81
2023-12-18T09:53:59.418Z,5.86
2023-12-18T09:54:59.369Z,6.04
2023-12-18T09:55:59.385Z,6.08
2023-12-18T09:56:59.352Z,5.89
2023-12-18T09:57:59.361Z,5.83
2023-12-18T09:58:59.302Z,5.86
2023-12-18T09:59:59.314Z,5.85
2023-12-18T10:00:59.425Z,5.94
2023-12-18T10:01:59.330Z,5.89
2023-12-18T10:02:59.275Z,5.83
2023-12-18T10:03:59.292Z,5.85
2023-12-18T10:04:59.279Z,5.86
2023-12-18T10:05:59.236Z,5.85
2023-12-18T10:06:59.225Z,5.72
2023-12-18T10:07:59.197Z,5.65
2023-12-18T10:08:59.173Z,5.57
2023-12-18T10:09:59.250Z,5.36
2023-12-18T10:10:59.166Z,5.27
2023-12-18T10:11:59.170Z,5.03
2023-12-18T10:12:59.312Z,4.84
2023-12-18T10:13:59.170Z,4.72
2023-12-18T10:14:59.105Z,4.62
2023-12-18T10:15:59.137Z,4.59
2023-12-18T10:16:59.087Z,4.51
2023-12-18T10:17:59.113Z,4.47
2023-12-18T10:18:59.131Z,4.44
2023-12-18T10:19:59.108Z,4.41
2023-12-18T10:20:59.025Z,4.41
2023-12-18T10:21:59.036Z,4.40
2023-12-18T10:22:58.986Z,4.37
2023-12-18T10:23:59.029Z,4.37
2023-12-18T10:24:59.007Z,4.36
2023-12-18T10:25:58.964Z,4.37
2023-12-18T10:26:58.943Z,4.40
2023-12-18T10:27:58.986Z,4.41
2023-12-18T10:28:58.908Z,4.41
2023-12-18T10:29:58.927Z,4.40
2023-12-18T10:30:59.002Z,4.40
2023-12-18T10:31:58.909Z,4.41
2023-12-18T10:32:58.989Z,4.45
2023-12-18T10:33:59.022Z,4.44
2023-12-18T10:34:58.861Z,4.44
2023-12-18T10:35:58.841Z,4.45
2023-12-18T10:36:58.841Z,4.41
2023-12-18T10:37:58.875Z,4.44
2023-12-18T10:38:58.778Z,4.45
2023-12-18T10:39:58.787Z,4.48
2023-12-18T10:40:58.756Z,4.45
2023-12-18T10:41:58.769Z,4.47
2023-12-18T10:42:58.734Z,4.45
2023-12-18T10:43:58.771Z,4.45
2023-12-18T10:44:58.742Z,4.44
2023-12-18T10:45:58.774Z,4.41
2023-12-18T10:46:58.688Z,4.40
2023-12-18T10:47:58.742Z,4.41
2023-12-18T10:48:58.759Z,4.44
2023-12-18T10:49:58.687Z,4.44
2023-12-18T10:50:58.633Z,4.41
2023-12-18T10:51:58.639Z,4.41
2023-12-18T10:52:58.591Z,4.42
2023-12-18T10:53:58.635Z,4.42
2023-12-18T10:54:58.566Z,4.45
2023-12-18T10:55:58.608Z,4.45
2023-12-18T10:56:58.591Z,4.48
2023-12-18T10:57:58.611Z,4.50
2023-12-18T10:58:58.546Z,4.50
2023-12-18T10:59:58.520Z,4.54
2023-12-18T11:00:58.568Z,4.58
2023-12-18T11:01:58.507Z,4.59
2023-12-18T11:02:58.536Z,4.63
2023-12-18T11:03:58.632Z,4.66
2023-12-18T11:04:58.495Z,4.67
2023-12-18T11:05:58.466Z,4.69
2023-12-18T11:06:58.500Z,4.69
2023-12-18T11:07:58.407Z,4.66
2023-12-18T11:08:58.415Z,4.66
2023-12-18T11:09:58.423Z,4.69
2023-12-18T11:10:58.361Z,4.69
2023-12-18T11:11:58.413Z,4.72
2023-12-18T11:12:58.379Z,4.75
2023-12-18T11:13:58.368Z,4.75
2023-12-18T11:14:58.302Z,4.77
2023-12-18T11:15:58.355Z,4.78
2023-12-18T11:16:58.328Z,4.82
2023-12-18T11:17:58.398Z,4.85
2023-12-18T11:19:08.444Z,4.86
2023-12-18T11:19:58.336Z,4.88
2023-12-18T11:20:58.274Z,4.89
2023-12-18T11:21:58.259Z,4.91
2023-12-18T11:22:58.272Z,4.92
2023-12-18T11:24:04.550Z,4.94
2023-12-18T11:24:58.180Z,4.96
2023-12-18T11:25:58.569Z,4.96
2023-12-18T11:26:58.149Z,4.97
2023-12-18T11:27:58.262Z,4.99
2023-12-18T11:28:58.151Z,5.02
2023-12-18T11:29:58.127Z,5.06
2023-12-18T11:30:58.130Z,5.10
2023-12-18T11:31:58.108Z,5.12
2023-12-18T11:32:58.100Z,5.12
2023-12-18T11:33:58.155Z,5.13
2023-12-18T11:34:58.154Z,5.15
2023-12-18T11:35:58.036Z,5.17
2023-12-18T11:36:58.104Z,5.20
2023-12-18T11:37:58.030Z,5.20
2023-12-18T11:38:58.020Z,5.20
2023-12-18T11:39:58.006Z,5.21
2023-12-18T11:40:57.982Z,5.21
2023-12-18T11:41:57.945Z,5.22
2023-12-18T11:42:58.012Z,5.24
2023-12-18T11:43:57.946Z,5.24
2023-12-18T11:44:57.953Z,5.24
2023-12-18T11:46:03.740Z,5.25
2023-12-18T11:46:57.941Z,5.30
2023-12-18T11:47:58.131Z,5.30
2023-12-18T11:48:57.941Z,5.30
2023-12-18T11:49:57.909Z,5.33
2023-12-18T11:50:57.949Z,5.35
2023-12-18T11:51:57.909Z,5.38
2023-12-18T11:52:57.829Z,5.39
2023-12-18T11:53:57.806Z,5.40
2023-12-18T11:54:57.826Z,5.42
2023-12-18T11:55:57.757Z,5.43
2023-12-18T11:56:57.816Z,5.43
2023-12-18T11:57:57.796Z,5.45
2023-12-18T11:58:57.759Z,5.48
2023-12-18T11:59:57.743Z,5.48
2023-12-18T12:00:57.789Z,5.53
2023-12-18T12:01:57.717Z,5.53
2023-12-18T12:02:57.693Z,5.54
2023-12-18T12:03:57.797Z,5.56
2023-12-18T12:04:57.715Z,5.56
2023-12-18T12:05:57.797Z,5.56
2023-12-18T12:06:57.689Z,5.56
2023-12-18T12:07:57.618Z,5.57
2023-12-18T12:08:57.643Z,5.56
2023-12-18T12:09:57.624Z,5.51
2023-12-18T12:10:57.587Z,5.51
2023-12-18T12:11:57.608Z,5.51
2023-12-18T12:12:57.643Z,5.49
2023-12-18T12:13:57.583Z,5.51
2023-12-18T12:14:57.531Z,5.53
2023-12-18T12:15:57.662Z,5.53
2023-12-18T12:16:57.543Z,5.54
2023-12-18T12:17:57.563Z,5.54
2023-12-18T12:18:57.648Z,5.54
2023-12-18T12:19:57.623Z,5.54
2023-12-18T12:20:57.495Z,5.56
2023-12-18T12:21:57.452Z,5.54
2023-12-18T12:22:57.432Z,5.56
2023-12-18T12:23:57.410Z,5.54
2023-12-18T12:24:57.534Z,5.57
2023-12-18T12:25:57.396Z,5.57
2023-12-18T12:26:57.364Z,5.58
2023-12-18T12:27:57.376Z,5.60
2023-12-18T12:28:57.354Z,5.60
2023-12-18T12:29:57.330Z,5.61
2023-12-18T12:30:57.461Z,5.64
2023-12-18T12:32:03.825Z,5.65
2023-12-18T12:32:57.436Z,5.65
2023-12-18T12:33:57.419Z,5.67
2023-12-18T12:34:57.563Z,5.67
2023-12-18T12:35:57.233Z,5.67
2023-12-18T12:36:57.279Z,5.68
2023-12-18T12:37:57.258Z,5.71
2023-12-18T12:38:57.233Z,5.72
2023-12-18T12:39:57.333Z,5.75
2023-12-18T12:40:57.195Z,5.75
2023-12-18T12:41:57.184Z,5.76
2023-12-18T12:42:57.184Z,5.75
2023-12-18T12:43:57.131Z,5.75
2023-12-18T12:44:57.251Z,5.76
2023-12-18T12:45:57.167Z,5.81
2023-12-18T12:46:57.129Z,5.82
2023-12-18T12:47:57.320Z,5.82
2023-12-18T12:48:57.181Z,5.85
2023-12-18T12:49:57.190Z,5.86
2023-12-18T12:50:57.081Z,5.86
2023-12-18T12:51:57.114Z,5.86
2023-12-18T12:52:57.064Z,5.90
2023-12-18T12:53:56.996Z,5.89
2023-12-18T12:54:57.049Z,5.90
2023-12-18T12:55:56.987Z,5.93
2023-12-18T12:56:57.034Z,5.93
2023-12-18T12:57:57.091Z,5.96
2023-12-18T12:58:56.992Z,5.94
2023-12-18T12:59:56.961Z,5.94
2023-12-18T13:00:57.002Z,5.94
2023-12-18T13:01:56.902Z,5.91
2023-12-18T13:02:56.906Z,5.93
2023-12-18T13:03:56.962Z,5.91
2023-12-18T13:04:56.937Z,5.93
2023-12-18T13:05:56.882Z,5.96
2023-12-18T13:06:56.905Z,5.94
2023-12-18T13:07:56.882Z,5.96
2023-12-18T13:08:56.842Z,5.96
2023-12-18T13:09:56.835Z,5.97
2023-12-18T13:10:58.839Z,6.00
2023-12-18T13:11:56.812Z,6.01
2023-12-18T13:12:56.819Z,6.06
2023-12-18T13:14:05.030Z,6.09
2023-12-18T13:14:56.770Z,6.15
2023-12-18T13:15:56.757Z,6.18
2023-12-18T13:16:56.731Z,6.19
2023-12-18T13:17:58.425Z,6.22